Accueil
METAR-TAF:

METAR-TAF

Aéroports :

Avignon, France

Aéroport d'Avignon-Provence

latitude: 43-54-26N, longitude: 004-54-07E, altitude: 38 m

Observation

Le bulletin a été fait il y a 26 minutes, à 03:30 UTC
Vent 3 kt de direction variable
Température 10°C
Humidité 93%
Pression 1019 hPa
Visibilité 10 km ou plus
pas de nuages en-dessous de 1500 mètres et pas de cumulonimbus.

METAR: LFMV 230330Z AUTO VRB03KT CAVOK 10/09 Q1019 NOSIG

Heure: 05:56 (03:56 UTC)

Prévision

Le bulletin a été fait il y a 1 heure et 56 minutes, à 02:00 UTC
Prévision valable du 23 à 03 UTC au 24 à 03 UTC
Vent 5 kt de direction variable
Visibilité 10 km ou plus
pas de nuages en-dessous de 1500 mètres et pas de cumulonimbus.
Temporairement
du 23 à 19 UTC au 23 à 21 UTC
Nuages fragmentés à une hauteur de 4000 ft
averses de pluie

TAF: LFMV 230200Z 2303/2403 VRB05KT CAVOK TEMPO 2319/2321 SHRA BKN040

Observations et prévisions météorologiques de plus de 4000 aéroports (messages METAR et TAF).

Les stations disponibles sont représentées par des disques jaunes et rouges sur la carte.

Passer la souris dessus pour voir le nom de la station.

Cliquer dessus pour voir les observations et prévisions météorologiques.

Pour changer de carte: cliquez sur les boutons verts avec une croix noire pour zoomer, sur le bouton vert avec un tiret pour effectuer un zoom arrière, ou sur les flèches vertes pour les cartes adjacentes.


METAR-TAF: